createdAt,value
2019-03-27T00:00:51.395Z,23.40
2019-03-27T00:01:51.374Z,20.80
2019-03-27T00:02:51.362Z,22.40
2019-03-27T00:03:51.338Z,26.70
2019-03-27T00:04:51.313Z,31.00
2019-03-27T00:05:51.297Z,22.50
2019-03-27T00:06:51.274Z,28.70
2019-03-27T00:07:51.252Z,30.00
2019-03-27T00:08:51.235Z,31.40
2019-03-27T00:09:51.212Z,26.40
2019-03-27T00:10:51.192Z,25.30
2019-03-27T00:11:51.174Z,27.80
2019-03-27T00:12:51.154Z,26.30
2019-03-27T00:13:51.134Z,24.60
2019-03-27T00:14:51.116Z,20.60
2019-03-27T00:15:51.094Z,25.60
2019-03-27T00:16:51.077Z,19.50
2019-03-27T00:17:51.052Z,24.70
2019-03-27T00:18:51.040Z,25.70
2019-03-27T00:19:51.011Z,24.40
2019-03-27T00:20:50.994Z,25.30
2019-03-27T00:21:50.984Z,24.90
2019-03-27T00:22:50.960Z,32.00
2019-03-27T00:23:50.932Z,27.70
2019-03-27T00:24:50.915Z,24.70
2019-03-27T00:25:50.893Z,23.70
2019-03-27T00:26:50.873Z,20.80
2019-03-27T00:27:50.859Z,27.80
2019-03-27T00:28:50.842Z,26.20
2019-03-27T00:29:50.815Z,22.40
2019-03-27T00:30:50.796Z,30.50
2019-03-27T00:31:50.772Z,25.40
2019-03-27T00:32:50.756Z,24.60
2019-03-27T00:33:50.736Z,26.00
2019-03-27T00:34:50.714Z,23.30
2019-03-27T00:35:50.696Z,23.40
2019-03-27T00:36:50.676Z,24.70
2019-03-27T00:37:50.655Z,25.60
2019-03-27T00:38:50.634Z,22.60
2019-03-27T00:39:50.611Z,24.60
2019-03-27T00:40:50.593Z,25.60
2019-03-27T00:41:50.577Z,23.40
2019-03-27T00:42:50.553Z,28.40
2019-03-27T00:43:50.529Z,24.30
2019-03-27T00:44:50.509Z,24.00
2019-03-27T00:45:50.496Z,21.00
2019-03-27T00:46:50.475Z,21.90
2019-03-27T00:47:50.448Z,24.90
2019-03-27T00:48:50.447Z,32.00
2019-03-27T00:49:50.413Z,26.60
2019-03-27T00:50:50.390Z,25.40
2019-03-27T00:51:50.370Z,25.60
2019-03-27T00:52:50.349Z,23.40
2019-03-27T00:53:50.333Z,24.60
2019-03-27T00:54:50.316Z,25.50
2019-03-27T00:55:50.289Z,25.90
2019-03-27T00:56:50.271Z,28.30
2019-03-27T00:57:50.257Z,22.60
2019-03-27T00:58:50.233Z,27.00
2019-03-27T00:59:50.210Z,25.00
2019-03-27T01:00:50.190Z,26.50
2019-03-27T01:01:50.167Z,26.50
2019-03-27T01:02:50.153Z,27.60
2019-03-27T01:03:50.127Z,23.70
2019-03-27T01:04:50.106Z,28.10
2019-03-27T01:05:50.091Z,22.50
2019-03-27T01:06:51.101Z,32.00
2019-03-27T01:07:50.046Z,29.00
2019-03-27T01:08:50.035Z,25.20
2019-03-27T01:09:50.037Z,24.80
2019-03-27T01:10:49.986Z,30.80
2019-03-27T01:11:49.965Z,28.80
2019-03-27T01:12:49.947Z,26.00
2019-03-27T01:13:49.925Z,26.00
2019-03-27T01:14:49.904Z,24.50
2019-03-27T01:15:49.885Z,25.80
2019-03-27T01:16:49.873Z,26.40
2019-03-27T01:17:49.846Z,29.80
2019-03-27T01:18:49.826Z,25.20
2019-03-27T01:19:49.801Z,26.40
2019-03-27T01:20:49.790Z,30.70
2019-03-27T01:21:49.767Z,31.80
2019-03-27T01:22:49.746Z,28.00
2019-03-27T01:23:49.720Z,29.50
2019-03-27T01:24:49.716Z,26.80
2019-03-27T01:25:49.684Z,34.50
2019-03-27T01:26:49.665Z,31.80
2019-03-27T01:27:49.642Z,28.00
2019-03-27T01:28:49.624Z,32.00
2019-03-27T01:29:49.607Z,32.30
2019-03-27T01:30:49.578Z,28.20
2019-03-27T01:31:49.559Z,25.00
2019-03-27T01:32:49.537Z,25.90
2019-03-27T01:33:49.522Z,26.60
2019-03-27T01:34:49.502Z,30.30
2019-03-27T01:35:49.477Z,27.50
2019-03-27T01:36:49.460Z,25.40
2019-03-27T01:37:49.440Z,29.50
2019-03-27T01:38:49.416Z,25.30
2019-03-27T01:39:49.395Z,27.70
2019-03-27T01:40:49.382Z,36.10
2019-03-27T01:41:49.353Z,42.30
2019-03-27T01:42:49.333Z,30.70
2019-03-27T01:43:49.315Z,28.70
2019-03-27T01:44:49.330Z,32.20
2019-03-27T01:45:53.250Z,28.60
2019-03-27T01:46:49.256Z,28.30
2019-03-27T01:47:49.230Z,30.60
2019-03-27T01:48:49.209Z,32.90
2019-03-27T01:49:49.191Z,31.10
2019-03-27T01:50:49.178Z,27.00
2019-03-27T01:51:49.149Z,29.80
2019-03-27T01:52:49.133Z,29.50
2019-03-27T01:53:49.107Z,25.60
2019-03-27T01:54:49.088Z,29.90
2019-03-27T01:55:49.070Z,30.30
2019-03-27T01:56:49.051Z,31.20
2019-03-27T01:57:49.030Z,25.30
2019-03-27T01:58:49.004Z,30.90
2019-03-27T01:59:48.985Z,33.00
2019-03-27T02:00:48.968Z,28.20
2019-03-27T02:01:48.945Z,34.40
2019-03-27T02:02:48.932Z,29.90
2019-03-27T02:03:48.903Z,26.80
2019-03-27T02:04:48.881Z,29.70
2019-03-27T02:05:48.862Z,30.30
2019-03-27T02:06:48.844Z,30.40
2019-03-27T02:07:48.822Z,34.00
2019-03-27T02:08:48.911Z,34.90
2019-03-27T02:09:48.779Z,33.60
2019-03-27T02:10:48.759Z,31.70
2019-03-27T02:11:48.737Z,28.20
2019-03-27T02:12:48.718Z,28.40
2019-03-27T02:13:48.699Z,29.90
2019-03-27T02:14:48.677Z,33.80
2019-03-27T02:15:48.660Z,26.50
2019-03-27T02:16:48.638Z,25.80
2019-03-27T02:17:48.617Z,29.00
2019-03-27T02:18:48.595Z,35.30
2019-03-27T02:19:48.575Z,30.20
2019-03-27T02:20:48.556Z,28.60
2019-03-27T02:21:48.535Z,28.50
2019-03-27T02:22:48.514Z,27.30
2019-03-27T02:23:48.492Z,28.60
2019-03-27T02:24:48.471Z,26.20
2019-03-27T02:25:48.451Z,27.90
2019-03-27T02:26:48.431Z,34.10
2019-03-27T02:27:48.414Z,29.10
2019-03-27T02:28:48.396Z,32.00
2019-03-27T02:29:48.371Z,28.20
2019-03-27T02:30:48.349Z,33.90
2019-03-27T02:31:48.327Z,28.50
2019-03-27T02:32:48.323Z,29.50
2019-03-27T02:33:48.396Z,32.00
2019-03-27T02:34:48.281Z,26.00
2019-03-27T02:35:48.246Z,31.00
2019-03-27T02:36:48.229Z,29.70
2019-03-27T02:37:48.216Z,25.40
2019-03-27T02:38:48.186Z,33.00
2019-03-27T02:39:48.160Z,30.40
2019-03-27T02:40:48.146Z,32.20
2019-03-27T02:41:48.123Z,28.30
2019-03-27T02:42:48.108Z,34.50
2019-03-27T02:43:48.075Z,24.50
2019-03-27T02:44:48.058Z,31.90
2019-03-27T02:45:48.034Z,29.00
2019-03-27T02:46:48.018Z,26.20
2019-03-27T02:47:47.995Z,29.20
2019-03-27T02:48:47.974Z,26.90
2019-03-27T02:49:47.952Z,27.30
2019-03-27T02:50:47.932Z,30.80
2019-03-27T02:51:47.959Z,26.40
2019-03-27T02:52:47.890Z,28.40
2019-03-27T02:53:47.869Z,28.00
2019-03-27T02:54:47.854Z,33.70
2019-03-27T02:55:47.831Z,31.30
2019-03-27T02:56:47.830Z,29.10
2019-03-27T02:57:47.790Z,31.20
2019-03-27T02:58:47.781Z,29.10
2019-03-27T02:59:47.743Z,35.50
2019-03-27T03:00:47.736Z,30.00
2019-03-27T03:01:48.357Z,31.10
2019-03-27T03:02:47.681Z,35.70
2019-03-27T03:03:47.660Z,38.10
2019-03-27T03:04:47.643Z,35.50
2019-03-27T03:05:47.631Z,44.90
2019-03-27T03:06:47.599Z,49.60
2019-03-27T03:07:47.579Z,60.20
2019-03-27T03:08:47.556Z,53.70
2019-03-27T03:09:47.534Z,44.90
2019-03-27T03:10:47.518Z,40.80
2019-03-27T03:11:47.495Z,38.70
2019-03-27T03:12:47.475Z,39.70
2019-03-27T03:13:47.450Z,40.50
2019-03-27T03:14:47.435Z,37.20
2019-03-27T03:15:47.410Z,40.40
2019-03-27T03:16:47.393Z,40.50
2019-03-27T03:17:47.370Z,36.60
2019-03-27T03:18:47.353Z,30.70
2019-03-27T03:19:47.329Z,35.70
2019-03-27T03:20:47.307Z,29.10
2019-03-27T03:21:47.286Z,26.10
2019-03-27T03:22:47.269Z,27.90
2019-03-27T03:23:47.330Z,32.20
2019-03-27T03:24:47.225Z,32.80
2019-03-27T03:25:47.205Z,34.10
2019-03-27T03:26:50.760Z,30.60
2019-03-27T03:27:47.163Z,28.80
2019-03-27T03:28:47.140Z,29.30
2019-03-27T03:29:47.125Z,26.70
2019-03-27T03:30:47.099Z,31.70
2019-03-27T03:31:47.080Z,27.40
2019-03-27T03:32:47.058Z,28.30
2019-03-27T03:33:47.045Z,26.50
2019-03-27T03:34:47.017Z,29.90
2019-03-27T03:35:46.993Z,27.10
2019-03-27T03:36:46.974Z,26.60
2019-03-27T03:37:46.951Z,26.10
2019-03-27T03:38:46.940Z,33.40
2019-03-27T03:39:46.911Z,30.00
2019-03-27T03:40:46.909Z,30.30
2019-03-27T03:41:46.869Z,24.40
2019-03-27T03:42:46.851Z,28.90
2019-03-27T03:43:46.830Z,25.10
2019-03-27T03:44:46.811Z,21.50
2019-03-27T03:45:46.791Z,26.50
2019-03-27T03:46:59.451Z,26.80
2019-03-27T03:47:46.760Z,21.60
2019-03-27T03:48:46.723Z,23.90
2019-03-27T03:49:46.703Z,28.40
2019-03-27T03:50:46.685Z,31.70
2019-03-27T03:51:46.666Z,27.60
2019-03-27T03:52:46.650Z,24.20
2019-03-27T03:53:46.621Z,23.60
2019-03-27T03:54:46.600Z,24.70
2019-03-27T03:55:46.598Z,25.00
2019-03-27T03:56:46.564Z,28.70
2019-03-27T03:57:46.539Z,26.70
2019-03-27T03:58:46.516Z,28.80
2019-03-27T03:59:46.493Z,29.30
2019-03-27T04:00:46.482Z,31.80
2019-03-27T04:01:46.453Z,32.10
2019-03-27T04:02:46.431Z,28.90
2019-03-27T04:03:46.414Z,30.30
2019-03-27T04:04:46.394Z,25.40
2019-03-27T04:05:46.386Z,28.40
2019-03-27T04:06:46.355Z,30.20
2019-03-27T04:07:46.326Z,26.50
2019-03-27T04:08:46.422Z,29.90
2019-03-27T04:09:46.291Z,29.30
2019-03-27T04:10:46.263Z,24.90
2019-03-27T04:11:46.243Z,28.70
2019-03-27T04:12:46.260Z,24.90
2019-03-27T04:13:46.203Z,27.90
2019-03-27T04:14:46.187Z,26.30
2019-03-27T04:15:46.176Z,29.20
2019-03-27T04:16:46.146Z,29.90
2019-03-27T04:17:46.120Z,25.50
2019-03-27T04:18:46.106Z,33.30
2019-03-27T04:19:46.079Z,41.20
2019-03-27T04:20:46.057Z,31.70
2019-03-27T04:21:46.047Z,34.30
2019-03-27T04:22:46.026Z,29.90
2019-03-27T04:23:46.001Z,33.40
2019-03-27T04:24:45.979Z,32.90
2019-03-27T04:26:07.950Z,27.60
2019-03-27T04:26:45.937Z,27.40
2019-03-27T04:27:45.915Z,28.40
2019-03-27T04:28:45.896Z,27.00
2019-03-27T04:29:45.873Z,29.70
2019-03-27T04:30:45.854Z,25.30
2019-03-27T04:31:45.834Z,28.20
2019-03-27T04:32:45.809Z,28.90
2019-03-27T04:33:45.799Z,31.80
2019-03-27T04:34:47.313Z,27.20
2019-03-27T04:35:45.748Z,28.90
2019-03-27T04:36:45.724Z,27.80
2019-03-27T04:37:45.706Z,24.90
2019-03-27T04:38:45.684Z,25.60
2019-03-27T04:39:45.662Z,25.80
2019-03-27T04:40:45.643Z,26.70
2019-03-27T04:41:45.621Z,22.70
2019-03-27T04:42:45.605Z,24.10
2019-03-27T04:43:45.579Z,24.00
2019-03-27T04:44:45.559Z,22.40
2019-03-27T04:45:45.543Z,22.70
2019-03-27T04:46:45.522Z,23.20
2019-03-27T04:47:45.496Z,24.70
2019-03-27T04:48:45.477Z,25.50
2019-03-27T04:49:45.457Z,19.60
2019-03-27T04:50:45.435Z,22.10
2019-03-27T04:51:45.413Z,26.70
2019-03-27T04:52:45.392Z,28.50
2019-03-27T04:53:45.370Z,29.50
2019-03-27T04:54:45.351Z,21.40
2019-03-27T04:55:45.329Z,24.80
2019-03-27T04:56:45.308Z,21.50
2019-03-27T04:57:45.294Z,22.10
2019-03-27T04:58:45.274Z,20.10
2019-03-27T04:59:45.246Z,23.50
2019-03-27T05:00:45.227Z,33.90
2019-03-27T05:01:45.209Z,33.60
2019-03-27T05:02:45.194Z,26.20
2019-03-27T05:03:45.165Z,29.40
2019-03-27T05:04:45.145Z,24.60
2019-03-27T05:05:45.125Z,24.20
2019-03-27T05:06:45.105Z,29.20
2019-03-27T05:07:45.082Z,24.90
2019-03-27T05:08:45.065Z,22.00
2019-03-27T05:09:45.044Z,22.90
2019-03-27T05:10:45.020Z,24.30
2019-03-27T05:11:44.997Z,18.10
2019-03-27T05:12:44.987Z,20.20
2019-03-27T05:13:44.961Z,29.90
2019-03-27T05:14:44.935Z,22.00
2019-03-27T05:15:44.916Z,24.00
2019-03-27T05:16:44.898Z,26.50
2019-03-27T05:17:46.494Z,23.40
2019-03-27T05:18:44.861Z,22.90
2019-03-27T05:19:44.834Z,20.80
2019-03-27T05:20:44.813Z,19.80
2019-03-27T05:21:44.793Z,21.80
2019-03-27T05:22:44.771Z,21.10
2019-03-27T05:23:44.749Z,21.60
2019-03-27T05:24:44.729Z,24.00
2019-03-27T05:25:44.741Z,22.80
2019-03-27T05:26:44.697Z,24.60
2019-03-27T05:27:44.669Z,24.40
2019-03-27T05:28:44.712Z,23.10
2019-03-27T05:29:44.626Z,20.30
2019-03-27T05:30:44.606Z,22.80
2019-03-27T05:31:44.587Z,24.20
2019-03-27T05:32:44.574Z,24.70
2019-03-27T05:33:44.545Z,27.20
2019-03-27T05:34:44.526Z,27.80
2019-03-27T05:35:44.504Z,23.00
2019-03-27T05:36:44.479Z,21.60
2019-03-27T05:37:44.461Z,19.50
2019-03-27T05:38:44.447Z,22.60
2019-03-27T05:39:44.420Z,20.40
2019-03-27T05:40:44.403Z,18.30
2019-03-27T05:41:44.381Z,17.10
2019-03-27T05:42:44.360Z,18.60
2019-03-27T05:43:44.336Z,24.50
2019-03-27T05:44:44.324Z,21.10
2019-03-27T05:45:44.296Z,24.70
2019-03-27T05:46:44.278Z,23.10
2019-03-27T05:47:44.254Z,23.90
2019-03-27T05:48:44.237Z,19.20
2019-03-27T05:49:44.225Z,26.60
2019-03-27T05:50:44.197Z,22.10
2019-03-27T05:51:44.174Z,21.20
2019-03-27T05:52:44.163Z,20.90
2019-03-27T05:53:44.136Z,22.10
2019-03-27T05:54:44.111Z,26.90
2019-03-27T05:55:44.093Z,24.50
2019-03-27T05:56:44.069Z,25.20
2019-03-27T05:57:44.054Z,25.00
2019-03-27T05:58:44.031Z,21.90
2019-03-27T05:59:44.010Z,28.10
2019-03-27T06:00:43.990Z,22.20
2019-03-27T06:01:43.967Z,21.90
2019-03-27T06:02:43.953Z,22.60
2019-03-27T06:03:43.928Z,28.70
2019-03-27T06:04:43.913Z,27.20
2019-03-27T06:05:43.891Z,21.70
2019-03-27T06:06:43.874Z,25.50
2019-03-27T06:07:43.851Z,18.50
2019-03-27T06:08:43.827Z,21.90
2019-03-27T06:09:43.805Z,21.30
2019-03-27T06:10:43.789Z,26.80
2019-03-27T06:11:43.767Z,21.80
2019-03-27T06:12:43.748Z,23.50
2019-03-27T06:13:43.733Z,25.40
2019-03-27T06:14:43.709Z,19.00
2019-03-27T06:15:45.102Z,29.60
2019-03-27T06:16:43.662Z,23.50
2019-03-27T06:17:43.643Z,28.20
2019-03-27T06:18:43.626Z,21.90
2019-03-27T06:19:43.608Z,26.30
2019-03-27T06:20:43.583Z,25.50
2019-03-27T06:21:43.565Z,20.40
2019-03-27T06:22:43.544Z,24.30
2019-03-27T06:23:43.521Z,22.30
2019-03-27T06:24:43.503Z,21.60
2019-03-27T06:25:43.484Z,26.90
2019-03-27T06:26:43.471Z,24.70
2019-03-27T06:27:43.441Z,26.70
2019-03-27T06:28:43.426Z,28.60
2019-03-27T06:29:43.400Z,23.70
2019-03-27T06:30:43.377Z,25.60
2019-03-27T06:31:43.356Z,24.60
2019-03-27T06:32:43.343Z,23.10
2019-03-27T06:33:43.323Z,17.10
2019-03-27T06:34:43.296Z,23.30
2019-03-27T06:35:43.280Z,23.30
2019-03-27T06:36:43.255Z,24.60
2019-03-27T06:37:43.245Z,24.30
2019-03-27T06:38:43.219Z,22.70
2019-03-27T06:39:43.196Z,21.30
2019-03-27T06:40:43.184Z,28.20
2019-03-27T06:41:43.157Z,24.20
2019-03-27T06:42:43.133Z,33.00
2019-03-27T06:43:43.115Z,34.20
2019-03-27T06:44:43.095Z,31.20
2019-03-27T06:45:43.078Z,26.50
2019-03-27T06:46:43.057Z,28.40
2019-03-27T06:47:43.035Z,28.70
2019-03-27T06:48:43.017Z,22.60
2019-03-27T06:49:43.001Z,27.90
2019-03-27T06:50:42.973Z,20.90
2019-03-27T06:51:42.956Z,25.70
2019-03-27T06:52:42.933Z,27.00
2019-03-27T06:53:42.916Z,40.40
2019-03-27T06:54:42.894Z,49.70
2019-03-27T06:55:42.872Z,27.00
2019-03-27T06:56:42.853Z,29.70
2019-03-27T06:57:42.834Z,20.60
2019-03-27T06:58:53.810Z,27.70
2019-03-27T06:59:42.798Z,25.00
2019-03-27T07:00:42.775Z,24.80
2019-03-27T07:01:42.753Z,24.30
2019-03-27T07:02:42.735Z,24.10
2019-03-27T07:03:42.721Z,21.90
2019-03-27T07:04:42.697Z,23.10
2019-03-27T07:05:42.672Z,21.70
2019-03-27T07:06:42.653Z,22.70
2019-03-27T07:07:42.635Z,23.90
2019-03-27T07:08:42.614Z,23.30
2019-03-27T07:09:42.786Z,24.60
2019-03-27T07:10:42.576Z,20.50
2019-03-27T07:11:42.553Z,21.70
2019-03-27T07:12:42.535Z,26.20
2019-03-27T07:13:42.512Z,24.40
2019-03-27T07:14:42.502Z,24.80
2019-03-27T07:15:42.471Z,22.10
2019-03-27T07:16:42.453Z,20.20
2019-03-27T07:17:42.431Z,20.60
2019-03-27T07:18:42.414Z,21.80
2019-03-27T07:19:42.399Z,18.90
2019-03-27T07:20:42.372Z,20.10
2019-03-27T07:21:42.368Z,19.60
2019-03-27T07:22:42.336Z,22.30
2019-03-27T07:23:42.315Z,19.90
2019-03-27T07:24:42.292Z,21.10
2019-03-27T07:25:42.277Z,23.60
2019-03-27T07:26:42.251Z,19.30
2019-03-27T07:27:42.233Z,20.10
2019-03-27T07:28:42.217Z,17.80
2019-03-27T07:29:42.194Z,17.70
2019-03-27T07:30:42.174Z,21.40
2019-03-27T07:31:42.177Z,23.10
2019-03-27T07:32:42.137Z,19.70
2019-03-27T07:33:42.122Z,23.80
2019-03-27T07:34:42.096Z,19.00
2019-03-27T07:35:42.078Z,21.80
2019-03-27T07:36:42.059Z,23.60
2019-03-27T07:37:42.035Z,20.50
2019-03-27T07:38:42.014Z,20.30
2019-03-27T07:39:41.997Z,19.10
2019-03-27T07:40:41.993Z,20.00
2019-03-27T07:41:41.967Z,17.00
2019-03-27T07:42:41.942Z,15.80
2019-03-27T07:43:41.922Z,17.40
2019-03-27T07:44:41.899Z,18.60
2019-03-27T07:45:41.881Z,16.90
2019-03-27T07:46:41.865Z,17.50
2019-03-27T07:47:41.843Z,15.40
2019-03-27T07:48:53.273Z,15.80
2019-03-27T07:49:41.803Z,20.60
2019-03-27T07:50:41.799Z,20.00
2019-03-27T07:51:41.767Z,17.40
2019-03-27T07:52:41.751Z,18.70
2019-03-27T07:53:41.731Z,17.80
2019-03-27T07:54:41.712Z,28.60
2019-03-27T07:55:41.689Z,21.10
2019-03-27T07:56:41.672Z,25.00
2019-03-27T07:57:41.656Z,16.90
2019-03-27T07:58:41.634Z,18.60
2019-03-27T07:59:41.623Z,17.00
2019-03-27T08:00:41.603Z,17.70
2019-03-27T08:01:41.579Z,16.90
2019-03-27T08:02:41.559Z,19.10
2019-03-27T08:03:41.565Z,17.80
2019-03-27T08:04:41.524Z,18.20
2019-03-27T08:05:41.509Z,22.40
2019-03-27T08:06:41.486Z,17.30
2019-03-27T08:07:41.466Z,16.00
2019-03-27T08:08:41.451Z,18.80
2019-03-27T08:09:41.430Z,18.50
2019-03-27T08:10:41.427Z,18.70
2019-03-27T08:11:41.553Z,12.40
2019-03-27T08:12:41.410Z,13.90
2019-03-27T08:13:41.365Z,15.70
2019-03-27T08:14:41.345Z,16.40
2019-03-27T08:15:41.332Z,14.80
2019-03-27T08:16:41.311Z,21.40
2019-03-27T08:17:41.296Z,17.00
2019-03-27T08:18:41.278Z,22.40
2019-03-27T08:19:41.259Z,17.70
2019-03-27T08:20:41.242Z,13.70
2019-03-27T08:21:41.235Z,15.40
2019-03-27T08:22:41.209Z,14.90
2019-03-27T08:23:41.199Z,15.20
2019-03-27T08:24:41.201Z,14.00
2019-03-27T08:25:41.160Z,16.00
2019-03-27T08:26:41.142Z,14.80
2019-03-27T08:27:41.133Z,12.10
2019-03-27T08:28:41.116Z,16.50
2019-03-27T08:29:41.096Z,14.30
2019-03-27T08:30:41.083Z,16.50
2019-03-27T08:31:41.073Z,14.00
2019-03-27T08:32:41.051Z,12.10
2019-03-27T08:33:41.040Z,10.40
2019-03-27T08:34:41.022Z,13.40
2019-03-27T08:35:41.003Z,15.10
2019-03-27T08:36:40.993Z,10.20
2019-03-27T08:37:40.980Z,14.40
2019-03-27T08:38:40.966Z,10.10
2019-03-27T08:39:40.968Z,11.20
2019-03-27T08:40:40.953Z,11.30
2019-03-27T08:41:40.931Z,15.10
2019-03-27T08:42:40.932Z,10.90
2019-03-27T08:43:40.916Z,12.90
2019-03-27T08:44:40.903Z,11.40
2019-03-27T08:45:40.893Z,12.10
2019-03-27T08:46:40.889Z,14.70
2019-03-27T08:47:40.974Z,11.10
2019-03-27T08:48:40.883Z,11.50
2019-03-27T08:49:40.866Z,14.20
2019-03-27T08:50:40.857Z,12.50
2019-03-27T08:51:40.848Z,11.30
2019-03-27T08:52:40.843Z,9.90
2019-03-27T08:53:40.845Z,18.20
2019-03-27T08:54:40.835Z,16.50
2019-03-27T08:55:40.826Z,12.20
2019-03-27T08:56:40.821Z,9.60
2019-03-27T08:57:40.818Z,9.70
2019-03-27T08:58:40.811Z,10.90
2019-03-27T08:59:40.804Z,11.20
2019-03-27T09:00:40.806Z,9.50
2019-03-27T09:01:40.794Z,10.20
2019-03-27T09:02:40.787Z,11.70
2019-03-27T09:03:40.781Z,11.20
2019-03-27T09:04:40.774Z,11.20
2019-03-27T09:05:40.767Z,9.40
2019-03-27T09:06:40.762Z,12.00
2019-03-27T09:07:40.761Z,7.90
2019-03-27T09:08:40.756Z,10.20
2019-03-27T09:09:40.738Z,10.90
2019-03-27T09:10:40.731Z,10.30
2019-03-27T09:11:40.774Z,11.90
2019-03-27T09:12:40.717Z,11.00
2019-03-27T09:13:40.705Z,11.60
2019-03-27T09:14:40.708Z,8.60
2019-03-27T09:15:40.695Z,9.90
2019-03-27T09:16:40.682Z,13.30
2019-03-27T09:17:40.679Z,12.80
2019-03-27T09:18:40.666Z,15.20
2019-03-27T09:19:40.661Z,10.00
2019-03-27T09:20:40.653Z,11.00
2019-03-27T09:21:40.649Z,14.50
2019-03-27T09:22:40.639Z,15.20
2019-03-27T09:23:40.631Z,12.30
2019-03-27T09:24:40.625Z,12.80
2019-03-27T09:25:40.619Z,12.40
2019-03-27T09:26:40.614Z,8.70
2019-03-27T09:27:40.607Z,10.70
2019-03-27T09:28:40.602Z,14.50
2019-03-27T09:29:40.590Z,11.30
2019-03-27T09:30:40.592Z,11.10
2019-03-27T09:31:45.173Z,12.60
2019-03-27T09:32:40.578Z,11.90
2019-03-27T09:33:40.576Z,13.30
2019-03-27T09:34:40.556Z,12.90
2019-03-27T09:35:40.546Z,15.00
2019-03-27T09:36:40.546Z,10.90
2019-03-27T09:37:40.536Z,15.70
2019-03-27T09:38:40.527Z,12.40
2019-03-27T09:39:40.513Z,9.50
2019-03-27T09:40:40.508Z,11.70
2019-03-27T09:41:40.503Z,10.00
2019-03-27T09:42:40.497Z,9.10
2019-03-27T09:43:40.480Z,10.20
2019-03-27T09:44:40.493Z,10.90
2019-03-27T09:45:40.461Z,9.70
2019-03-27T09:46:40.451Z,11.40
2019-03-27T09:47:40.445Z,10.20
2019-03-27T09:48:40.434Z,10.70
2019-03-27T09:49:49.434Z,10.80
2019-03-27T09:50:40.414Z,11.10
2019-03-27T09:51:40.402Z,9.00
2019-03-27T09:52:40.402Z,10.00
2019-03-27T09:53:40.391Z,9.10
2019-03-27T09:54:40.380Z,8.50
2019-03-27T09:55:40.366Z,9.50
2019-03-27T09:56:40.357Z,8.80
2019-03-27T09:57:40.347Z,11.90
2019-03-27T09:58:40.334Z,10.20
2019-03-27T09:59:40.330Z,11.20
2019-03-27T10:00:40.324Z,7.70
2019-03-27T10:01:40.309Z,10.60
2019-03-27T10:02:40.306Z,9.50
2019-03-27T10:03:40.302Z,11.00
2019-03-27T10:04:40.283Z,11.60
2019-03-27T10:05:40.263Z,10.90
2019-03-27T10:06:40.256Z,10.50
2019-03-27T10:07:40.252Z,10.30
2019-03-27T10:08:40.234Z,12.30
2019-03-27T10:09:40.222Z,12.40
2019-03-27T10:10:40.214Z,12.60
2019-03-27T10:11:40.201Z,13.20
2019-03-27T10:12:40.193Z,13.50
2019-03-27T10:13:40.185Z,11.20
2019-03-27T10:14:40.177Z,10.50
2019-03-27T10:15:40.165Z,14.00
2019-03-27T10:16:40.147Z,14.40
2019-03-27T10:17:40.134Z,13.80
2019-03-27T10:18:40.128Z,14.80
2019-03-27T10:19:40.115Z,10.40
2019-03-27T10:20:40.102Z,11.60
2019-03-27T10:21:40.094Z,10.90
2019-03-27T10:22:40.080Z,13.90
2019-03-27T10:23:40.069Z,16.00
2019-03-27T10:24:40.058Z,13.00
2019-03-27T10:25:40.051Z,10.60
2019-03-27T10:26:42.682Z,12.10
2019-03-27T10:27:40.022Z,12.30
2019-03-27T10:28:40.011Z,9.40
2019-03-27T10:29:40.002Z,9.70
2019-03-27T10:30:39.987Z,11.10
2019-03-27T10:31:39.978Z,11.40
2019-03-27T10:32:39.965Z,14.40
2019-03-27T10:33:39.954Z,10.00
2019-03-27T10:34:39.939Z,10.40
2019-03-27T10:35:39.929Z,11.20
2019-03-27T10:36:39.914Z,10.30
2019-03-27T10:37:39.907Z,9.10
2019-03-27T10:38:41.672Z,9.20
2019-03-27T10:39:39.885Z,9.60
2019-03-27T10:40:39.869Z,11.80
2019-03-27T10:41:39.857Z,14.70
2019-03-27T10:42:39.849Z,10.00
2019-03-27T10:43:39.831Z,10.40
2019-03-27T10:44:39.824Z,9.80
2019-03-27T10:45:39.809Z,11.30
2019-03-27T10:46:39.795Z,12.70
2019-03-27T10:47:39.788Z,11.60
2019-03-27T10:48:51.973Z,12.00
2019-03-27T10:49:39.757Z,10.40
2019-03-27T10:50:39.751Z,10.10
2019-03-27T10:51:39.741Z,10.50
2019-03-27T10:52:39.721Z,10.50
2019-03-27T10:53:39.716Z,11.70
2019-03-27T10:54:39.699Z,10.70
2019-03-27T10:55:39.695Z,11.30
2019-03-27T10:56:39.669Z,9.80
2019-03-27T10:57:39.753Z,10.10
2019-03-27T10:58:39.654Z,10.70
2019-03-27T10:59:39.631Z,9.80
2019-03-27T11:00:39.631Z,11.90
2019-03-27T11:01:39.618Z,9.10
2019-03-27T11:02:39.593Z,11.70
2019-03-27T11:03:39.600Z,11.50
2019-03-27T11:04:39.582Z,9.90
2019-03-27T11:05:39.563Z,13.60
2019-03-27T11:06:39.545Z,11.00
2019-03-27T11:07:39.531Z,10.70
2019-03-27T11:08:39.527Z,15.00
2019-03-27T11:09:39.507Z,7.70
2019-03-27T11:10:39.492Z,8.70
2019-03-27T11:11:39.478Z,9.70
2019-03-27T11:12:39.464Z,9.10
2019-03-27T11:13:39.451Z,9.30
2019-03-27T11:14:39.439Z,9.90
2019-03-27T11:15:39.423Z,12.70
2019-03-27T11:16:39.411Z,11.70
2019-03-27T11:17:39.399Z,12.10
2019-03-27T11:18:39.388Z,9.70
2019-03-27T11:19:39.371Z,11.20
2019-03-27T11:20:39.360Z,8.20
2019-03-27T11:21:39.343Z,9.50
2019-03-27T11:22:39.331Z,16.50
2019-03-27T11:23:39.324Z,10.70
2019-03-27T11:24:39.302Z,8.20
2019-03-27T11:25:39.301Z,11.00
2019-03-27T11:26:39.279Z,11.70
2019-03-27T11:27:39.264Z,16.60
2019-03-27T11:28:39.254Z,9.00
2019-03-27T11:29:39.236Z,13.10
2019-03-27T11:30:39.227Z,18.10
2019-03-27T11:31:39.205Z,13.40
2019-03-27T11:32:39.196Z,11.90
2019-03-27T11:33:39.180Z,14.90
2019-03-27T11:34:39.170Z,10.80
2019-03-27T11:35:39.159Z,10.80
2019-03-27T11:36:39.140Z,6.10
2019-03-27T11:37:39.132Z,10.90
2019-03-27T11:38:39.122Z,8.00
2019-03-27T11:39:39.104Z,10.00
2019-03-27T11:40:39.088Z,11.00
2019-03-27T11:41:39.076Z,13.80
2019-03-27T11:42:39.060Z,11.00
2019-03-27T11:43:39.051Z,10.60
2019-03-27T11:44:39.041Z,11.80
2019-03-27T11:45:39.029Z,12.00
2019-03-27T11:46:39.014Z,10.20
2019-03-27T11:47:38.994Z,12.90
2019-03-27T11:48:38.987Z,10.80
2019-03-27T11:49:38.971Z,10.40
2019-03-27T11:50:45.235Z,8.00
2019-03-27T11:51:38.944Z,8.80
2019-03-27T11:52:38.936Z,10.20
2019-03-27T11:53:38.916Z,7.20
2019-03-27T11:54:38.921Z,15.00
2019-03-27T11:55:38.886Z,13.90
2019-03-27T11:56:38.873Z,9.50
2019-03-27T11:57:38.907Z,9.70
2019-03-27T11:58:38.859Z,10.30
2019-03-27T11:59:38.834Z,10.80
2019-03-27T12:00:53.480Z,8.10
2019-03-27T12:01:42.205Z,9.00
2019-03-27T12:02:38.793Z,9.50
2019-03-27T12:03:38.779Z,7.70
2019-03-27T12:04:38.764Z,7.40
2019-03-27T12:05:38.755Z,8.70
2019-03-27T12:06:38.738Z,10.60
2019-03-27T12:07:38.733Z,10.10
2019-03-27T12:08:38.711Z,12.40
2019-03-27T12:09:38.697Z,11.50
2019-03-27T12:10:38.682Z,9.80
2019-03-27T12:11:38.678Z,8.80
2019-03-27T12:12:38.656Z,12.40
2019-03-27T12:13:38.641Z,12.10
2019-03-27T12:14:38.646Z,10.10
2019-03-27T12:15:38.628Z,7.10
2019-03-27T12:16:38.597Z,12.40
2019-03-27T12:17:38.581Z,11.00
2019-03-27T12:18:38.575Z,11.20
2019-03-27T12:19:38.558Z,9.30
2019-03-27T12:20:38.542Z,10.40
2019-03-27T12:21:38.528Z,10.60
2019-03-27T12:22:38.514Z,9.00
2019-03-27T12:23:38.500Z,11.80
2019-03-27T12:24:38.489Z,7.60
2019-03-27T12:25:38.479Z,7.90
2019-03-27T12:26:38.461Z,7.40
2019-03-27T12:27:38.455Z,4.80
2019-03-27T12:28:38.439Z,5.40
2019-03-27T12:29:38.429Z,7.60
2019-03-27T12:30:38.406Z,9.70
2019-03-27T12:31:38.407Z,11.80
2019-03-27T12:32:38.380Z,7.00
2019-03-27T12:33:38.377Z,9.10
2019-03-27T12:34:38.358Z,11.00
2019-03-27T12:35:38.352Z,9.30
2019-03-27T12:36:38.332Z,8.60
2019-03-27T12:37:38.315Z,7.50
2019-03-27T12:38:38.307Z,7.00
2019-03-27T12:39:40.789Z,9.70
2019-03-27T12:40:38.279Z,9.20
2019-03-27T12:41:38.270Z,9.90
2019-03-27T12:42:38.249Z,9.10
2019-03-27T12:43:38.238Z,7.40
2019-03-27T12:44:38.225Z,8.40
2019-03-27T12:45:38.212Z,7.40
2019-03-27T12:46:38.200Z,8.60
2019-03-27T12:47:38.182Z,8.10
2019-03-27T12:48:38.169Z,10.30
2019-03-27T12:49:38.160Z,10.80
2019-03-27T12:50:38.142Z,10.60
2019-03-27T12:51:38.209Z,6.90
2019-03-27T12:52:38.131Z,6.20
2019-03-27T12:53:38.126Z,8.20
2019-03-27T12:54:38.093Z,5.90
2019-03-27T12:55:38.082Z,8.10